Time;durP1;ratioP1;P1;durP2;ratioP2;P2;SDS_P1;SDS_P2;PMS_P1;PMS_P2;Temp;Humidity;BMP_temperature;BMP_pressure;BME280_temperature;BME280_humidity;BME280_pressure;Samples;Min_cycle;Max_cycle;Signal;HPM_P1;HPM_P2
2023/02/16 00:00:19;;;;;;;;;48.80;42.00;;;;;11.84;55.39;102037.75;2095853;28;45331;-62
2023/02/16 00:01:23;;;;;;;;;48.40;41.60;;;;;11.84;55.39;102034.22;2095314;28;46601;-62
2023/02/16 00:02:24;;;;;;;;;50.60;42.60;;;;;11.83;55.36;102037.78;2094400;28;46742;-61
2023/02/16 00:03:24;;;;;;;;;48.50;40.75;;;;;11.83;55.47;102029.78;2111580;27;45735;-62
2023/02/16 00:04:28;;;;;;;;;50.25;41.00;;;;;11.83;55.20;102027.13;2105018;28;45891;-64
2023/02/16 00:05:33;;;;;;;;;50.00;41.60;;;;;11.83;55.45;102027.13;2105228;28;45569;-64
2023/02/16 00:06:34;;;;;;;;;45.80;38.40;;;;;11.83;55.36;102030.69;2111427;27;45638;-63
2023/02/16 00:07:34;;;;;;;;;51.25;42.50;;;;;11.82;55.44;102031.56;2104861;27;46053;-63
2023/02/16 00:08:34;;;;;;;;;46.25;38.75;;;;;11.83;55.33;102024.47;2103529;28;47289;-63
2023/02/16 00:09:34;;;;;;;;;45.75;39.00;;;;;11.82;55.37;102028.03;2104787;28;45925;-62
2023/02/16 00:10:37;;;;;;;;;42.00;37.50;;;;;11.83;55.36;102032.47;2108938;27;45732;-62
2023/02/16 00:14:36;;;;;;;;;48.80;41.60;;;;;11.82;55.56;102031.56;2087869;28;45720;-63
2023/02/16 00:15:37;;;;;;;;;46.20;38.40;;;;;11.83;55.23;102032.47;2091744;28;45522;-62
2023/02/16 00:16:37;;;;;;;;;42.25;37.25;;;;;11.81;55.30;102032.44;2093159;28;45880;-61
2023/02/16 00:17:38;;;;;;;;;47.75;40.25;;;;;11.81;55.26;102026.22;2095094;28;45485;-62
2023/02/16 00:18:38;;;;;;;;;43.75;38.50;;;;;11.82;55.41;102033.34;2094876;28;46568;-63
2023/02/16 00:19:40;;;;;;;;;47.00;38.50;;;;;11.82;55.17;102030.69;2095276;28;46423;-62
2023/02/16 00:20:41;;;;;;;;;40.40;36.00;;;;;11.82;55.31;102025.38;2086147;28;46660;-63
2023/02/16 00:21:41;;;;;;;;;46.00;37.00;;;;;11.82;55.64;102022.72;2086531;28;45673;-62
2023/02/16 00:22:41;;;;;;;;;48.50;37.50;;;;;11.82;55.20;102025.38;2087283;28;45563;-63
2023/02/16 00:23:42;;;;;;;;;47.50;39.50;;;;;11.81;55.22;102021.81;2087627;28;45654;-63
2023/02/16 00:24:42;;;;;;;;;47.75;40.25;;;;;11.81;55.44;102024.47;2086943;28;45984;-62
2023/02/16 00:25:42;;;;;;;;;52.00;42.75;;;;;11.80;55.42;102033.34;2093343;28;45995;-63
2023/02/16 00:26:44;;;;;;;;;41.00;35.00;;;;;11.79;55.46;102027.13;2090953;28;46106;-63
2023/02/16 00:27:44;;;;;;;;;52.00;43.00;;;;;11.79;55.48;102029.78;2069359;28;45675;-63
2023/02/16 00:28:44;;;;;;;;;45.75;38.75;;;;;11.81;55.18;102023.56;2069875;28;46024;-62
2023/02/16 00:29:45;;;;;;;;;49.75;42.25;;;;;11.78;55.32;102022.69;2068203;28;45995;-63
2023/02/16 00:30:46;;;;;;;;;52.25;43.25;;;;;11.79;55.47;102027.13;2068070;28;45607;-63
2023/02/16 00:31:46;;;;;;;;;52.25;42.75;;;;;11.79;55.46;102027.13;2070871;28;45578;-63
2023/02/16 00:32:46;;;;;;;;;50.25;42.50;;;;;11.79;55.39;102024.47;2065665;28;46021;-62
2023/02/16 00:33:47;;;;;;;;;49.50;41.50;;;;;11.81;55.47;102026.22;2072492;28;45632;-63
2023/02/16 00:34:48;;;;;;;;;41.25;37.00;;;;;11.81;55.39;102018.25;2070115;28;45398;-63
2023/02/16 00:35:48;;;;;;;;;54.25;43.25;;;;;11.81;55.30;102024.47;2070834;28;46001;-62
2023/02/16 00:36:48;;;;;;;;;27.50;23.50;;;;;11.82;55.42;102025.38;2070376;28;45748;-62
2023/02/16 00:37:49;;;;;;;;;52.50;41.75;;;;;11.82;55.41;102025.38;2070487;28;45458;-62
2023/02/16 00:38:49;;;;;;;;;49.25;41.25;;;;;11.82;55.20;102022.72;2059123;28;45872;-64
2023/02/16 00:39:50;;;;;;;;;46.25;39.75;;;;;11.82;55.46;102025.38;2056866;28;46095;-63
2023/02/16 00:40:50;;;;;;;;;49.00;40.00;;;;;11.82;55.38;102015.63;2050735;28;46610;-63
2023/02/16 00:41:53;;;;;;;;;50.50;40.50;;;;;11.82;55.24;102023.59;2056000;28;46025;-62
2023/02/16 00:42:53;;;;;;;;;49.20;41.00;;;;;11.83;55.46;102028.03;2070820;28;46729;-62
2023/02/16 00:43:54;;;;;;;;;48.00;40.25;;;;;11.84;55.34;102024.47;2070439;28;45848;-62
2023/02/16 00:44:56;;;;;;;;;42.25;35.50;;;;;11.83;55.40;102017.38;2074035;28;46000;-62
2023/02/16 00:45:56;;;;;;;;;48.40;40.60;;;;;11.83;55.33;102017.38;2070633;28;46279;-62
2023/02/16 00:47:08;;;;;;;;;49.50;41.25;;;;;11.83;55.33;102016.50;2075344;28;45419;-62
2023/02/16 00:48:09;;;;;;;;;46.80;39.80;;;;;11.82;55.32;102017.41;2073987;28;46335;-62
2023/02/16 00:49:14;;;;;;;;;50.75;41.75;;;;;11.80;55.09;102017.38;2077545;28;46263;-63
2023/02/16 00:50:21;;;;;;;;;51.80;42.40;;;;;11.78;55.33;102014.69;2101683;27;45829;-63
2023/02/16 00:51:21;;;;;;;;;45.20;38.20;;;;;11.79;55.48;102010.28;2101111;27;46006;-63
2023/02/16 00:52:27;;;;;;;;;47.00;40.00;;;;;11.80;55.65;102012.06;2087178;28;45495;-62
2023/02/16 00:53:27;;;;;;;;;50.40;41.80;;;;;11.78;55.23;102008.50;2085132;28;45133;-62
2023/02/16 00:54:28;;;;;;;;;43.00;36.25;;;;;11.77;55.44;102012.94;2086744;28;46459;-61
2023/02/16 00:55:32;;;;;;;;;48.25;41.50;;;;;11.76;55.29;102011.16;2095115;28;46411;-61
2023/02/16 00:56:32;;;;;;;;;49.20;41.80;;;;;11.76;55.34;101999.66;2095373;28;45740;-62
2023/02/16 00:57:37;;;;;;;;;47.00;40.25;;;;;11.75;55.37;102005.84;2087568;28;44972;-62
2023/02/16 00:58:38;;;;;;;;;52.00;43.20;;;;;11.74;55.40;102007.63;2087203;28;45732;-62
2023/02/16 00:59:38;;;;;;;;;47.25;39.00;;;;;11.74;55.61;102006.75;2097270;28;45488;-62
2023/02/16 01:00:41;;;;;;;;;46.75;40.00;;;;;11.73;55.39;102005.00;2104566;28;46466;-62
2023/02/16 01:01:42;;;;;;;;;42.20;37.60;;;;;11.72;55.47;102003.22;2104239;28;45494;-61
2023/02/16 01:02:44;;;;;;;;;51.75;41.00;;;;;11.71;55.73;102001.47;2101614;28;45628;-62
2023/02/16 01:03:45;;;;;;;;;47.60;40.80;;;;;11.70;55.62;101994.38;2104402;28;46305;-62
2023/02/16 01:04:45;;;;;;;;;46.25;40.25;;;;;11.68;55.33;101998.78;2101082;28;45927;-62
2023/02/16 01:05:45;;;;;;;;;48.25;42.00;;;;;11.68;55.75;101999.69;2104329;28;45644;-62
2023/02/16 01:11:06;;;;;;;;;49.60;41.60;;;;;11.66;55.70;101998.81;2099233;28;45555;-61
2023/02/16 01:12:14;;;;;;;;;51.40;42.20;;;;;11.66;55.86;102001.47;2104950;27;45653;-62
2023/02/16 01:13:15;;;;;;;;;48.60;41.40;;;;;11.66;55.58;101997.94;2104194;28;45829;-62
2023/02/16 01:14:15;;;;;;;;;50.00;41.80;;;;;11.66;55.73;102001.47;2104630;28;46393;-61
2023/02/16 01:15:19;;;;;;;;;51.00;42.25;;;;;11.67;55.75;102002.34;2096464;28;45747;-62
2023/02/16 01:16:21;;;;;;;;;47.00;41.20;;;;;11.67;55.70;102002.34;2096202;28;46463;-62
2023/02/16 01:17:22;;;;;;;;;51.40;42.00;;;;;11.67;55.60;102002.34;2096218;28;45696;-62
2023/02/16 01:18:23;;;;;;;;;45.00;39.40;;;;;11.67;55.68;102002.34;2097752;28;46336;-61
2023/02/16 01:19:24;;;;;;;;;44.50;38.50;;;;;11.66;55.58;102001.47;2096604;28;46023;-62
2023/02/16 01:20:25;;;;;;;;;48.00;40.25;;;;;11.65;55.85;101997.03;2098576;28;46043;-63
2023/02/16 01:21:25;;;;;;;;;53.40;44.00;;;;;11.65;55.73;101998.81;2103582;28;45436;-62
2023/02/16 01:22:26;;;;;;;;;47.50;38.25;;;;;11.64;55.74;101992.63;2105369;28;45143;-62
2023/02/16 01:23:26;;;;;;;;;50.00;41.00;;;;;11.64;55.53;101992.63;2093907;28;45989;-63
2023/02/16 01:24:26;;;;;;;;;44.50;38.25;;;;;11.63;55.91;101998.84;2095188;28;46138;-63
2023/02/16 01:25:27;;;;;;;;;50.00;41.75;;;;;11.62;56.14;101997.06;2111486;27;46612;-62
2023/02/16 01:26:28;;;;;;;;;50.25;41.25;;;;;11.62;55.73;101991.75;2112937;27;45854;-63
2023/02/16 01:27:30;;;;;;;;;49.60;41.80;;;;;11.64;55.90;101997.06;2104128;27;45981;-63
2023/02/16 01:28:34;;;;;;;;;50.60;42.80;;;;;11.62;55.96;101994.41;2104120;27;45551;-62
2023/02/16 01:29:35;;;;;;;;;49.40;41.80;;;;;11.63;55.88;101993.50;2103707;27;46083;-62
2023/02/16 01:30:35;;;;;;;;;51.50;41.50;;;;;11.63;56.01;101989.97;2104451;28;46025;-63
2023/02/16 01:31:35;;;;;;;;;50.00;41.00;;;;;11.64;55.88;101994.41;2103131;28;46416;-63
2023/02/16 01:32:35;;;;;;;;;49.25;41.75;;;;;11.65;55.87;101993.50;2104155;28;45946;-62
2023/02/16 01:33:36;;;;;;;;;50.75;42.00;;;;;11.65;55.79;101991.72;2103787;28;45650;-63
2023/02/16 01:34:37;;;;;;;;;50.00;41.00;;;;;11.65;56.01;101990.84;2098133;28;45897;-63
2023/02/16 01:35:38;;;;;;;;;50.20;40.40;;;;;11.65;55.92;101993.50;2095881;28;45613;-64
2023/02/16 01:36:42;;;;;;;;;46.75;39.75;;;;;11.65;56.02;101990.84;2097575;28;45056;-64
2023/02/16 01:37:42;;;;;;;;;45.20;38.40;;;;;11.66;55.91;101992.59;2098971;28;46151;-63
2023/02/16 01:38:42;;;;;;;;;49.50;40.75;;;;;11.66;55.93;101984.63;2104060;28;45868;-62
2023/02/16 01:39:43;;;;;;;;;47.00;40.00;;;;;11.65;56.16;101983.75;2103040;28;45904;-65
2023/02/16 01:40:51;;;;;;;;;48.00;40.25;;;;;11.65;55.94;101986.41;2104462;28;44828;-63
2023/02/16 01:42:19;;;;;;;;;48.20;40.40;;;;;11.66;56.17;101988.16;2100187;28;45688;-63
2023/02/16 01:43:42;;;;;;;;;44.40;37.80;;;;;11.67;56.01;101987.28;2100241;28;46097;-63
2023/02/16 01:44:57;;;;;;;;;55.20;43.00;;;;;11.68;55.94;101981.06;2098639;28;45566;-63
2023/02/16 01:46:19;;;;;;;;;41.40;36.40;;;;;11.68;56.30;101977.53;2098899;28;45549;-62
2023/02/16 01:47:35;;;;;;;;;52.00;43.20;;;;;11.70;56.18;101978.44;2099862;28;45409;-63
2023/02/16 01:48:35;;;;;;;;;47.20;40.20;;;;;11.70;56.24;101983.75;2098395;28;45658;-63
2023/02/16 01:49:35;;;;;;;;;39.50;35.00;;;;;11.70;56.31;101984.63;2099533;28;46025;-64
2023/02/16 01:50:47;;;;;;;;;48.50;40.75;;;;;11.71;56.16;101978.41;2098000;28;45669;-63
2023/02/16 01:51:54;;;;;;;;;51.20;42.40;;;;;11.73;56.34;101981.06;2101621;28;45571;-64
2023/02/16 01:53:02;;;;;;;;;48.20;41.00;;;;;11.75;56.19;101976.59;2101058;28;45648;-63
2023/02/16 01:54:15;;;;;;;;;50.60;39.60;;;;;11.74;56.21;101981.03;2102385;27;46601;-63
2023/02/16 01:55:22;;;;;;;;;47.40;40.00;;;;;11.74;56.08;101972.19;2101486;28;46405;-63
2023/02/16 01:56:44;;;;;;;;;49.00;41.60;;;;;11.74;56.26;101970.41;2100856;28;45470;-63
2023/02/16 01:58:05;;;;;;;;;47.80;39.40;;;;;11.74;56.31;101967.75;2096560;28;46224;-62
2023/02/16 01:59:38;;;;;;;;;47.00;38.80;;;;;11.75;56.29;101958.00;2097700;27;45716;-63
2023/02/16 02:00:48;;;;;;;;;51.60;40.80;;;;;11.74;56.15;101956.22;2101523;28;46210;-62
2023/02/16 02:01:51;;;;;;;;;47.40;39.40;;;;;11.73;56.11;101954.47;2103980;28;45939;-64
2023/02/16 02:05:33;;;;;;;;;49.40;41.60;;;;;11.73;56.14;101955.34;2101131;28;46089;-63
2023/02/16 02:05:42;;;;;;;;;52.60;43.20;;;;;11.71;56.12;101953.59;2102924;28;45705;-64
2023/02/16 02:06:43;;;;;;;;;50.50;43.75;;;;;11.70;56.32;101963.34;2104290;28;46054;-64
2023/02/16 02:07:58;;;;;;;;;51.75;43.25;;;;;11.69;56.40;101958.94;2103603;28;45111;-64
2023/02/16 02:09:10;;;;;;;;;47.00;37.80;;;;;11.68;56.46;101965.09;2103249;28;45594;-64
2023/02/16 02:10:16;;;;;;;;;45.00;39.00;;;;;11.67;56.49;101959.81;2101247;28;45842;-63
2023/02/16 02:11:21;;;;;;;;;36.60;32.40;;;;;11.65;56.58;101948.31;2102997;28;46405;-63
2023/02/16 02:12:27;;;;;;;;;49.20;40.40;;;;;11.65;56.36;101953.63;2094810;28;45712;-63
2023/02/16 02:13:43;;;;;;;;;49.00;40.80;;;;;11.63;56.67;101950.97;2094687;28;45787;-63
2023/02/16 02:14:43;;;;;;;;;41.80;37.20;;;;;11.63;56.53;101958.94;2103630;28;45646;-63
2023/02/16 02:15:43;;;;;;;;;46.50;39.25;;;;;11.63;56.66;101953.63;2098616;28;45459;-63
2023/02/16 02:17:04;;;;;;;;;51.75;41.75;;;;;11.61;56.68;101954.53;2102515;28;45728;-63
2023/02/16 02:18:04;;;;;;;;;48.60;40.40;;;;;11.58;56.64;101944.81;2099139;28;46247;-61
2023/02/16 02:19:05;;;;;;;;;46.75;39.25;;;;;11.60;56.53;101942.13;2096275;28;45475;-62
2023/02/16 02:20:12;;;;;;;;;39.50;35.75;;;;;11.58;56.53;101939.50;2101491;28;45081;-63
2023/02/16 02:23:31;;;;;;;;;45.80;38.40;;;;;11.54;56.68;101945.69;2104463;27;45546;-63
2023/02/16 02:25:09;;;;;;;;;46.00;41.40;;;;;11.53;56.87;101938.63;2081788;28;47893;-63
2023/02/16 02:26:42;;;;;;;;;46.20;39.20;;;;;11.51;56.85;101937.75;2086390;28;45712;-64
2023/02/16 02:28:08;;;;;;;;;43.00;38.80;;;;;11.50;56.73;101930.69;2084482;28;46405;-63
2023/02/16 02:29:17;;;;;;;;;50.40;42.60;;;;;11.49;56.74;101936.88;2079630;28;45553;-63
2023/02/16 02:30:32;;;;;;;;;41.40;35.60;;;;;11.47;57.14;101936.00;2086556;28;45644;-62
2023/02/16 02:31:54;;;;;;;;;45.60;40.60;;;;;11.47;57.05;101930.69;2085989;28;45628;-62
2023/02/16 02:33:32;;;;;;;;;42.60;36.00;;;;;11.46;56.98;101937.78;2086320;28;46297;-63
2023/02/16 02:35:00;;;;;;;;;45.60;37.40;;;;;11.45;57.24;101930.72;2085585;28;46687;-63
2023/02/16 02:36:44;;;;;;;;;44.20;38.00;;;;;11.44;57.28;101928.06;2086331;28;45492;-62
2023/02/16 02:38:11;;;;;;;;;48.80;40.20;;;;;11.44;57.25;101928.94;2085981;28;45667;-62
2023/02/16 02:39:39;;;;;;;;;47.00;40.80;;;;;11.45;57.27;101932.50;2065615;28;46197;-63
2023/02/16 02:40:51;;;;;;;;;45.80;39.20;;;;;11.45;57.25;101937.81;2057837;28;46160;-63
2023/02/16 02:42:16;;;;;;;;;45.60;39.40;;;;;11.43;56.97;101934.25;2060895;28;46200;-64
2023/02/16 02:43:24;;;;;;;;;45.20;37.60;;;;;11.41;57.17;101938.69;2062183;28;46104;-64
2023/02/16 02:44:27;;;;;;;;;43.00;36.80;;;;;11.40;57.30;101937.81;2066094;28;45986;-63
2023/02/16 02:45:37;;;;;;;;;44.80;39.20;;;;;11.40;57.27;101942.25;2069946;28;46467;-61
2023/02/16 02:46:38;;;;;;;;;45.80;39.40;;;;;11.38;57.19;101936.94;2063359;28;45969;-62
2023/02/16 02:47:44;;;;;;;;;47.50;39.50;;;;;11.37;57.27;101939.63;2069407;28;45399;-62
2023/02/16 02:48:44;;;;;;;;;43.80;38.40;;;;;11.38;57.24;101944.03;2069513;28;46315;-62
2023/02/16 02:49:53;;;;;;;;;47.25;40.25;;;;;11.36;57.19;101943.16;2055143;28;45968;-62
2023/02/16 02:52:18;;;;;;;;;49.20;41.00;;;;;11.32;56.83;101941.41;2067391;28;45664;-63
2023/02/16 02:53:19;;;;;;;;;50.40;42.20;;;;;11.30;57.05;101943.19;2069648;28;46173;-62
2023/02/16 03:00:42;;;;;;;;;50.20;41.40;;;;;11.22;56.63;101932.59;2063764;28;45696;-62
2023/02/16 03:01:50;;;;;;;;;47.60;41.00;;;;;11.20;56.78;101926.41;2063604;28;45221;-61
2023/02/16 03:02:55;;;;;;;;;51.80;42.80;;;;;11.18;56.55;101936.19;2070968;28;46209;-63
2023/02/16 03:03:56;;;;;;;;;45.80;40.80;;;;;11.17;56.59;101937.03;2078091;28;45976;-61
2023/02/16 03:04:59;;;;;;;;;49.40;40.20;;;;;11.16;56.50;101944.13;2079675;28;46024;-61
2023/02/16 03:06:08;;;;;;;;;55.60;44.00;;;;;11.16;56.76;101946.78;2079664;28;46214;-61
2023/02/16 03:07:11;;;;;;;;;48.60;39.80;;;;;11.16;56.73;101943.25;2079439;28;45806;-63
2023/02/16 03:08:14;;;;;;;;;50.40;42.40;;;;;11.14;56.60;101934.41;2079217;28;46095;-62
2023/02/16 03:09:15;;;;;;;;;49.40;43.20;;;;;11.12;56.59;101937.06;2079850;28;45908;-62
2023/02/16 03:13:02;;;;;;;;;47.60;40.40;;;;;11.03;56.79;101922.94;2079580;28;46023;-63
2023/02/16 03:14:43;;;;;;;;;33.80;32.00;;;;;10.99;56.66;101924.72;2079359;28;46032;-62
2023/02/16 03:15:47;;;;;;;;;50.00;42.40;;;;;10.96;56.66;101923.88;2059485;28;45987;-63
2023/02/16 03:30:23;;;;;;;;;49.60;40.20;;;;;10.79;57.33;101921.25;2100037;28;45742;-63
2023/02/16 03:31:29;;;;;;;;;47.40;39.40;;;;;10.77;57.43;101923.91;2096201;28;45531;-62
2023/02/16 03:32:29;;;;;;;;;48.60;41.20;;;;;10.75;57.25;101922.16;2088808;28;46152;-64
2023/02/16 03:33:30;;;;;;;;;52.75;41.00;;;;;10.76;57.63;101926.59;2095671;28;46532;-63
2023/02/16 03:34:34;;;;;;;;;39.60;35.60;;;;;10.74;57.62;101923.94;2095422;28;46616;-63
2023/02/16 03:35:35;;;;;;;;;50.00;40.80;;;;;10.75;57.32;101920.38;2104242;28;45647;-63
2023/02/16 03:36:38;;;;;;;;;49.40;41.00;;;;;10.74;57.48;101921.28;2104058;28;45518;-63
2023/02/16 03:37:40;;;;;;;;;41.00;36.00;;;;;10.73;57.58;101921.28;2099519;28;46582;-63
2023/02/16 03:38:40;;;;;;;;;38.20;34.80;;;;;10.70;57.70;101923.97;2102541;28;46395;-63
2023/02/16 03:41:00;;;;;;;;;43.20;38.40;;;;;10.67;57.72;101924.88;2087821;28;45609;-63
2023/02/16 03:42:01;;;;;;;;;48.25;40.75;;;;;10.66;57.82;101925.72;2091300;28;45717;-62
2023/02/16 03:43:05;;;;;;;;;31.50;30.75;;;;;10.64;57.75;101918.66;2091224;28;45588;-62
2023/02/16 03:44:05;;;;;;;;;44.20;38.00;;;;;10.61;58.02;101917.78;2100395;28;45885;-62
2023/02/16 03:45:06;;;;;;;;;45.50;39.25;;;;;10.60;57.88;101931.06;2098183;28;46427;-64
2023/02/16 03:46:06;;;;;;;;;47.50;41.50;;;;;10.60;57.96;101923.09;2090804;28;45567;-64
2023/02/16 03:47:09;;;;;;;;;44.75;39.25;;;;;10.59;57.93;101924.88;2087561;28;46221;-64
2023/02/16 03:48:10;;;;;;;;;45.60;38.40;;;;;10.58;58.06;101920.44;2088251;28;45880;-64
2023/02/16 03:49:11;;;;;;;;;48.00;39.20;;;;;10.60;57.97;101923.09;2094189;28;46107;-62
2023/02/16 03:50:11;;;;;;;;;45.50;39.00;;;;;10.60;58.30;101923.09;2096331;28;46093;-63
2023/02/16 03:51:11;;;;;;;;;42.00;37.00;;;;;10.59;57.94;101919.56;2093553;28;46045;-64
2023/02/16 03:52:12;;;;;;;;;48.25;39.00;;;;;10.60;58.15;101923.97;2090484;28;45816;-61
2023/02/16 03:53:12;;;;;;;;;48.50;39.00;;;;;10.58;58.00;101920.44;2097811;28;45151;-66
2023/02/16 03:54:13;;;;;;;;;51.75;41.75;;;;;10.59;58.34;101921.34;2103000;27;45535;-63
2023/02/16 03:55:13;;;;;;;;;46.00;39.50;;;;;10.59;58.07;101918.69;2102649;28;46025;-63
2023/02/16 03:56:14;;;;;;;;;53.00;40.25;;;;;10.58;58.23;101924.88;2099571;28;45850;-63
2023/02/16 03:57:15;;;;;;;;;48.00;41.00;;;;;10.60;58.31;101925.75;2095239;28;46350;-63
2023/02/16 03:58:20;;;;;;;;;45.60;39.40;;;;;10.62;58.27;101929.28;2093526;28;46342;-61
2023/02/16 03:59:21;;;;;;;;;45.00;38.40;;;;;10.63;58.08;101924.84;2094764;28;46849;-62
2023/02/16 04:00:21;;;;;;;;;44.50;38.00;;;;;10.64;58.28;101934.59;2095575;28;44951;-63
2023/02/16 04:01:21;;;;;;;;;47.00;40.75;;;;;10.65;58.09;101933.69;2104467;28;45934;-62
2023/02/16 04:02:22;;;;;;;;;44.00;39.00;;;;;10.64;58.09;101930.16;2104364;27;45649;-62
2023/02/16 04:03:22;;;;;;;;;37.75;35.75;;;;;10.65;57.88;101931.91;2102306;27;45953;-62
2023/02/16 04:04:23;;;;;;;;;41.50;38.00;;;;;10.65;57.94;101931.03;2099429;28;45694;-63
2023/02/16 04:05:23;;;;;;;;;44.00;37.25;;;;;10.65;57.99;101934.56;2103634;27;46181;-62
2023/02/16 04:06:23;;;;;;;;;46.50;38.50;;;;;10.65;58.03;101931.03;2104348;28;45855;-62
2023/02/16 04:07:24;;;;;;;;;45.50;38.50;;;;;10.64;57.82;101931.94;2096263;28;45427;-63
2023/02/16 04:08:24;;;;;;;;;47.75;38.50;;;;;10.64;58.07;101934.59;2095381;27;45493;-63
2023/02/16 04:09:24;;;;;;;;;48.00;41.00;;;;;10.63;57.85;101928.38;2100808;28;46277;-63
2023/02/16 04:10:25;;;;;;;;;49.75;40.25;;;;;10.64;57.89;101937.25;2099728;28;45689;-62
2023/02/16 04:12:45;;;;;;;;;37.60;34.40;;;;;10.61;57.86;101930.16;2101155;28;45950;-62
2023/02/16 04:13:45;;;;;;;;;50.50;41.25;;;;;10.61;57.98;101930.16;2103132;27;46435;-64
2023/02/16 04:14:45;;;;;;;;;48.00;41.25;;;;;10.63;57.98;101927.50;2104559;27;45503;-63
2023/02/16 04:15:46;;;;;;;;;47.00;39.50;;;;;10.60;58.02;101923.09;2106476;27;45404;-63
2023/02/16 04:16:46;;;;;;;;;48.75;38.75;;;;;10.61;58.27;101932.81;2104443;27;45846;-62
2023/02/16 04:17:47;;;;;;;;;48.00;41.00;;;;;10.61;58.27;101930.16;2096006;28;45681;-62
2023/02/16 04:18:47;;;;;;;;;47.50;39.50;;;;;10.59;58.30;101922.22;2100582;27;46000;-62
2023/02/16 04:19:47;;;;;;;;;47.75;38.75;;;;;10.60;58.21;101925.75;2097539;27;46969;-61
2023/02/16 04:20:48;;;;;;;;;45.75;39.00;;;;;10.59;58.26;101916.91;2096082;28;46134;-64
2023/02/16 04:21:48;;;;;;;;;45.75;38.50;;;;;10.59;58.52;101916.03;2099699;28;45923;-63
2023/02/16 04:22:49;;;;;;;;;48.25;40.00;;;;;10.60;58.47;101923.09;2095987;28;45403;-63
2023/02/16 04:23:49;;;;;;;;;39.00;35.20;;;;;10.60;58.26;101921.31;2100663;28;45866;-62
2023/02/16 04:24:50;;;;;;;;;46.00;39.00;;;;;10.61;58.15;101923.09;2104248;28;45778;-62
2023/02/16 04:25:50;;;;;;;;;47.75;39.75;;;;;10.63;58.20;101925.75;2102656;28;45121;-62
2023/02/16 04:26:50;;;;;;;;;39.00;35.75;;;;;10.63;58.16;101922.19;2102865;27;45493;-63
2023/02/16 04:27:52;;;;;;;;;48.50;40.75;;;;;10.62;58.54;101926.63;2104297;27;45707;-62
2023/02/16 04:28:52;;;;;;;;;47.00;39.80;;;;;10.62;58.46;101921.31;2097375;28;46067;-63
2023/02/16 04:29:52;;;;;;;;;49.25;39.00;;;;;10.61;58.23;101915.13;2101767;27;45776;-64
2023/02/16 04:30:53;;;;;;;;;43.50;38.25;;;;;10.62;58.27;101918.66;2096426;28;46195;-63
2023/02/16 04:31:53;;;;;;;;;48.75;41.50;;;;;10.61;58.34;101922.22;2102980;28;45988;-63
2023/02/16 04:32:54;;;;;;;;;47.00;39.00;;;;;10.61;58.54;101924.88;2103903;27;45094;-64
2023/02/16 04:33:54;;;;;;;;;38.40;35.00;;;;;10.61;58.47;101928.41;2103314;28;45739;-63
2023/02/16 04:34:55;;;;;;;;;47.00;39.50;;;;;10.61;58.41;101923.09;2098120;28;44914;-63
2023/02/16 04:35:55;;;;;;;;;45.25;39.00;;;;;10.63;58.22;101928.38;2104457;28;46515;-63
2023/02/16 04:36:55;;;;;;;;;49.00;40.00;;;;;10.63;58.34;101925.75;2105197;28;45817;-61
2023/02/16 04:37:55;;;;;;;;;43.50;38.00;;;;;10.62;58.54;101923.97;2105099;28;45261;-64
2023/02/16 04:38:56;;;;;;;;;48.50;38.25;;;;;10.63;58.42;101922.19;2097581;27;46071;-62
2023/02/16 04:39:56;;;;;;;;;43.25;38.25;;;;;10.61;58.47;101919.56;2099459;28;46750;-62
2023/02/16 04:40:56;;;;;;;;;45.75;38.50;;;;;10.62;58.67;101929.28;2099926;28;45350;-62
2023/02/16 04:41:57;;;;;;;;;45.25;38.00;;;;;10.61;58.54;101919.56;2098439;28;45455;-61
2023/02/16 04:42:57;;;;;;;;;43.50;37.75;;;;;10.61;58.46;101920.44;2104720;28;45082;-62
2023/02/16 04:43:57;;;;;;;;;48.50;40.50;;;;;10.61;58.60;101919.56;2105578;27;45515;-62
2023/02/16 04:44:58;;;;;;;;;46.25;39.25;;;;;10.60;58.58;101923.97;2105114;28;46025;-62
2023/02/16 04:45:58;;;;;;;;;49.75;40.75;;;;;10.60;58.68;101923.09;2103155;28;45093;-62
2023/02/16 04:46:59;;;;;;;;;43.50;38.00;;;;;10.60;58.81;101921.31;2104557;28;45728;-62
2023/02/16 04:47:59;;;;;;;;;47.75;39.50;;;;;10.61;58.49;101914.25;2105708;28;45691;-61
2023/02/16 04:48:59;;;;;;;;;41.75;35.25;;;;;10.62;58.65;101916.00;2111602;27;45462;-62
2023/02/16 04:49:59;;;;;;;;;47.00;39.50;;;;;10.64;58.68;101916.88;2112836;27;45834;-62
2023/02/16 04:51:03;;;;;;;;;49.00;40.50;;;;;10.64;58.44;101913.34;2095043;28;46174;-63
2023/02/16 04:52:04;;;;;;;;;49.40;42.20;;;;;10.65;58.63;101917.75;2092254;28;46161;-64
2023/02/16 04:53:05;;;;;;;;;43.60;38.60;;;;;10.64;58.33;101910.69;2092352;28;46159;-62
2023/02/16 04:54:06;;;;;;;;;47.40;39.60;;;;;10.64;58.41;101916.00;2096970;28;45878;-64
2023/02/16 04:55:09;;;;;;;;;50.00;42.75;;;;;10.62;58.68;101913.34;2095282;28;45876;-62
2023/02/16 04:56:11;;;;;;;;;48.20;40.00;;;;;10.62;58.37;101913.34;2097813;28;46822;-63
2023/02/16 04:57:11;;;;;;;;;43.80;38.20;;;;;10.63;58.17;101916.88;2095659;28;45761;-64
2023/02/16 04:58:12;;;;;;;;;46.25;39.00;;;;;10.61;58.45;101911.59;2094006;28;46355;-64
2023/02/16 04:59:14;;;;;;;;;47.00;39.50;;;;;10.62;58.15;101913.34;2092459;28;45480;-64
2023/02/16 05:00:14;;;;;;;;;48.60;40.40;;;;;10.61;58.08;101915.13;2098899;28;46107;-64
2023/02/16 05:01:23;;;;;;;;;49.75;42.00;;;;;10.60;58.34;101918.66;2095478;28;46153;-63
2023/02/16 05:02:24;;;;;;;;;47.80;40.40;;;;;10.60;58.39;101916.00;2092192;28;46389;-64
2023/02/16 05:03:24;;;;;;;;;46.00;38.50;;;;;10.60;58.13;101918.66;2095747;28;45554;-63
2023/02/16 05:04:24;;;;;;;;;46.25;38.50;;;;;10.60;58.13;101918.66;2096062;28;45433;-63
2023/02/16 05:05:25;;;;;;;;;49.50;40.00;;;;;10.60;58.25;101916.00;2091856;28;46012;-63
2023/02/16 05:06:25;;;;;;;;;46.00;39.50;;;;;10.60;58.29;101925.75;2093518;28;45608;-63
2023/02/16 05:07:26;;;;;;;;;47.75;39.75;;;;;10.60;58.23;101926.63;2094304;28;45658;-63
2023/02/16 05:08:26;;;;;;;;;46.50;38.50;;;;;10.60;58.32;101923.97;2092118;28;46728;-64
2023/02/16 05:09:26;;;;;;;;;40.25;35.25;;;;;10.59;58.30;101927.53;2099431;28;45565;-65
2023/02/16 05:10:27;;;;;;;;;45.00;39.00;;;;;10.61;58.42;101930.16;2095172;28;45675;-63
2023/02/16 05:15:24;;;;;;;;;46.00;38.40;;;;;10.60;58.54;101929.28;2091645;28;44981;-63
2023/02/16 05:16:24;;;;;;;;;38.75;34.50;;;;;10.61;58.43;101932.81;2094947;28;45497;-64
2023/02/16 05:17:25;;;;;;;;;50.50;40.50;;;;;10.61;58.47;101931.06;2095027;28;46022;-62
2023/02/16 05:18:26;;;;;;;;;44.60;38.20;;;;;10.63;58.40;101936.34;2095487;28;45956;-63
2023/02/16 05:19:26;;;;;;;;;44.25;38.50;;;;;10.64;58.66;101937.25;2095548;28;45106;-63
2023/02/16 05:21:29;;;;;;;;;26.75;26.75;;;;;10.61;58.49;101932.81;2092742;28;46064;-62
2023/02/16 05:21:47;;;;;;;;;42.00;37.80;;;;;10.60;58.61;101939.03;2095698;28;45516;-64
2023/02/16 05:22:47;;;;;;;;;41.00;36.50;;;;;10.58;58.55;101932.84;2092815;28;45589;-62
2023/02/16 05:23:47;;;;;;;;;39.00;36.00;;;;;10.59;58.77;101926.66;2096365;28;46337;-62
2023/02/16 05:24:48;;;;;;;;;44.00;38.50;;;;;10.59;58.62;101926.66;2099193;28;45028;-63
2023/02/16 05:25:48;;;;;;;;;47.50;40.75;;;;;10.57;58.51;101921.34;2103367;27;46099;-63
2023/02/16 05:26:48;;;;;;;;;37.75;34.50;;;;;10.57;58.59;101924.00;2098813;27;46131;-62
2023/02/16 05:27:49;;;;;;;;;45.50;38.00;;;;;10.57;58.55;101924.00;2097783;28;45411;-61
2023/02/16 05:28:49;;;;;;;;;48.00;38.75;;;;;10.55;58.60;101916.94;2104737;28;45706;-63
2023/02/16 05:29:49;;;;;;;;;44.25;38.00;;;;;10.54;58.48;101913.38;2104963;28;45349;-62
2023/02/16 05:30:50;;;;;;;;;38.75;34.50;;;;;10.52;58.60;101917.78;2101710;28;45254;-63
2023/02/16 05:31:50;;;;;;;;;41.00;36.75;;;;;10.53;58.73;101926.63;2103682;27;46029;-61